Johns Pass, Florida
Current Conditions -  °F | °C
As of 7:53 AM on Saturday 25 Oct 2014 (Local Time) from KPIE Reporting Station
Clear Clear  
Wind Chill: 67°   Ceiling: Unl
Heat Index: 67°   Visibility: 10mi
Dew Point: 54°   Wind: 10mph
Humidity: 63%   Direction: 10°N
Pressure: 29.99"   Gusts: NA
Location:  27.8164°N, 82.7802°W
Report Text: KPIE 251153Z 01009KT 10SM CLR 19/12 A2999 RMK AO2 SLP156 T01940122 10206 20189 53010
Loading
Personal Weather Stations






























Interactive Weather Map
Tropical Storm Tracking
New forecast layout! Learn more

10-Day Weather Forecast

Advertisements
Track Severe Weather on mobile